createdAt,value
2023-01-21T00:00:47.653Z,15.50
2023-01-21T00:03:26.625Z,16.10
2023-01-21T00:05:59.281Z,17.40
2023-01-21T00:08:31.799Z,16.40
2023-01-21T00:11:09.701Z,16.50
2023-01-21T00:13:42.183Z,16.90
2023-01-21T00:16:14.903Z,19.00
2023-01-21T00:18:48.290Z,18.70
2023-01-21T00:21:20.575Z,18.30
2023-01-21T00:23:52.805Z,18.90
2023-01-21T00:26:25.162Z,16.10
2023-01-21T00:28:57.436Z,16.90
2023-01-21T00:31:29.774Z,18.10
2023-01-21T00:34:02.381Z,18.70
2023-01-21T00:36:34.944Z,19.70
2023-01-21T00:39:07.585Z,16.50
2023-01-21T00:41:39.956Z,20.40
2023-01-21T00:44:12.368Z,17.20
2023-01-21T00:46:44.699Z,17.50
2023-01-21T00:49:17.027Z,19.70
2023-01-21T00:51:49.384Z,21.70
2023-01-21T00:54:21.922Z,15.90
2023-01-21T00:56:54.333Z,16.00
2023-01-21T00:59:27.353Z,18.70
2023-01-21T01:01:59.675Z,21.70
2023-01-21T01:04:31.985Z,20.90
2023-01-21T01:07:04.350Z,20.00
2023-01-21T01:09:36.809Z,20.40
2023-01-21T01:12:09.795Z,17.50
2023-01-21T01:14:42.008Z,20.30
2023-01-21T01:17:14.306Z,18.70
2023-01-21T01:19:46.797Z,21.10
2023-01-21T01:22:19.013Z,17.10
2023-01-21T01:24:51.505Z,17.10
2023-01-21T01:27:23.879Z,20.30
2023-01-21T01:29:56.392Z,19.50
2023-01-21T01:32:28.539Z,19.80
2023-01-21T01:35:00.960Z,19.00
2023-01-21T01:37:33.283Z,15.30
2023-01-21T01:40:06.261Z,19.50
2023-01-21T01:42:38.708Z,19.50
2023-01-21T01:45:20.631Z,18.70
2023-01-21T01:48:00.173Z,18.40
2023-01-21T01:50:36.715Z,17.40
2023-01-21T01:53:10.743Z,18.50
2023-01-21T01:55:43.405Z,17.80
2023-01-21T01:58:18.626Z,18.50
2023-01-21T02:00:51.010Z,19.00
2023-01-21T02:03:41.322Z,21.70
2023-01-21T02:06:14.779Z,21.80
2023-01-21T02:08:48.245Z,21.60
2023-01-21T02:11:22.274Z,19.00
2023-01-21T02:13:58.778Z,21.40
2023-01-21T02:16:42.982Z,17.70
2023-01-21T02:19:42.884Z,18.40
2023-01-21T02:22:25.606Z,17.70
2023-01-21T02:25:45.566Z,18.30
2023-01-21T02:28:46.739Z,23.20
2023-01-21T02:31:40.624Z,18.40
2023-01-21T02:34:20.995Z,22.90
2023-01-21T02:37:03.937Z,21.30
2023-01-21T02:39:52.554Z,20.10
2023-01-21T02:42:31.045Z,19.70
2023-01-21T02:45:11.402Z,18.40
2023-01-21T02:47:53.328Z,20.00
2023-01-21T02:50:27.784Z,15.10
2023-01-21T02:53:01.731Z,20.80
2023-01-21T02:55:37.231Z,19.60
2023-01-21T02:58:13.317Z,20.70
2023-01-21T03:03:57.400Z,17.50
2023-01-21T03:06:59.882Z,18.90
2023-01-21T03:09:34.205Z,19.30
2023-01-21T03:12:19.248Z,17.80
2023-01-21T03:15:14.476Z,17.40
2023-01-21T03:17:54.713Z,19.70
2023-01-21T03:20:30.788Z,20.90
2023-01-21T03:25:39.342Z,17.90
2023-01-21T03:28:15.108Z,20.90
2023-01-21T03:30:52.930Z,20.10
2023-01-21T03:33:27.149Z,19.90
2023-01-21T03:36:03.800Z,17.40
2023-01-21T03:38:43.325Z,23.40
2023-01-21T03:41:19.375Z,19.70
2023-01-21T03:43:52.244Z,16.70
2023-01-21T03:46:31.154Z,18.20
2023-01-21T03:49:08.882Z,19.80
2023-01-21T03:51:44.229Z,19.60
2023-01-21T03:54:17.222Z,20.60
2023-01-21T03:56:49.437Z,19.40
2023-01-21T03:59:21.613Z,20.60
2023-01-21T04:01:53.845Z,19.00
2023-01-21T04:04:26.241Z,18.20
2023-01-21T04:06:58.633Z,20.30
2023-01-21T04:09:30.961Z,16.30
2023-01-21T04:12:03.329Z,19.50
2023-01-21T04:14:35.779Z,17.60
2023-01-21T04:17:08.337Z,16.40
2023-01-21T04:19:40.708Z,19.00
2023-01-21T04:22:13.191Z,16.80
2023-01-21T04:24:45.436Z,19.80
2023-01-21T04:27:17.609Z,17.70
2023-01-21T04:29:49.904Z,18.90
2023-01-21T04:32:22.265Z,19.00
2023-01-21T04:34:54.648Z,18.60
2023-01-21T04:37:27.131Z,18.00
2023-01-21T04:39:59.526Z,17.10
2023-01-21T04:42:32.386Z,15.40
2023-01-21T04:45:04.997Z,17.60
2023-01-21T04:47:37.373Z,15.60
2023-01-21T04:50:11.728Z,21.40
2023-01-21T04:52:44.542Z,18.20
2023-01-21T04:55:16.912Z,15.40
2023-01-21T04:57:49.248Z,17.70
2023-01-21T05:00:22.913Z,18.70
2023-01-21T05:02:55.242Z,20.10
2023-01-21T05:05:27.613Z,19.20
2023-01-21T05:07:59.752Z,18.50
2023-01-21T05:10:32.012Z,16.50
2023-01-21T05:13:04.366Z,21.10
2023-01-21T05:15:36.640Z,21.20
2023-01-21T05:18:10.301Z,18.80
2023-01-21T05:20:42.739Z,16.60
2023-01-21T05:23:15.134Z,20.20
2023-01-21T05:25:49.902Z,18.70
2023-01-21T05:28:22.361Z,20.10
2023-01-21T05:30:54.784Z,17.00
2023-01-21T05:33:33.032Z,18.60
2023-01-21T05:36:06.199Z,19.10
2023-01-21T05:38:38.469Z,18.70
2023-01-21T05:41:10.865Z,21.90
2023-01-21T05:43:43.186Z,22.00
2023-01-21T05:46:15.565Z,17.40
2023-01-21T05:48:48.017Z,20.90
2023-01-21T05:51:20.425Z,18.20
2023-01-21T05:53:52.846Z,17.70
2023-01-21T05:56:25.098Z,16.00
2023-01-21T05:58:57.319Z,17.70
2023-01-21T06:01:29.676Z,19.30
2023-01-21T06:04:01.974Z,20.50
2023-01-21T06:06:34.285Z,21.70
2023-01-21T06:09:06.718Z,21.80
2023-01-21T06:11:39.022Z,19.60
2023-01-21T06:14:12.548Z,16.70
2023-01-21T06:16:44.832Z,20.00
2023-01-21T06:19:17.161Z,22.30
2023-01-21T06:21:49.468Z,19.60
2023-01-21T06:24:21.983Z,19.80
2023-01-21T06:26:55.176Z,20.90
2023-01-21T06:29:27.804Z,19.30
2023-01-21T06:32:00.335Z,18.30
2023-01-21T06:34:32.761Z,21.30
2023-01-21T06:37:05.071Z,22.40
2023-01-21T06:39:38.932Z,21.50
2023-01-21T06:42:11.308Z,23.20
2023-01-21T06:44:43.606Z,24.50
2023-01-21T06:47:16.499Z,20.50
2023-01-21T06:49:48.885Z,22.00
2023-01-21T06:52:21.322Z,18.60
2023-01-21T06:54:53.755Z,19.70
2023-01-21T06:57:26.259Z,21.00
2023-01-21T06:59:58.496Z,18.40
2023-01-21T07:02:30.883Z,18.60
2023-01-21T07:05:03.863Z,16.50
2023-01-21T07:07:37.211Z,19.40
2023-01-21T07:10:11.351Z,23.90
2023-01-21T07:12:43.665Z,22.30
2023-01-21T07:15:16.423Z,19.90
2023-01-21T07:17:49.014Z,20.40
2023-01-21T07:20:22.922Z,18.90
2023-01-21T07:22:55.273Z,19.90
2023-01-21T07:25:28.345Z,21.00
2023-01-21T07:28:00.709Z,19.40
2023-01-21T07:30:32.913Z,21.80
2023-01-21T07:33:10.126Z,21.90
2023-01-21T07:35:42.790Z,22.70
2023-01-21T07:38:16.133Z,19.10
2023-01-21T07:40:50.871Z,22.40
2023-01-21T07:43:23.183Z,27.10
2023-01-21T07:45:58.520Z,20.50
2023-01-21T07:48:32.290Z,21.00
2023-01-21T07:51:04.704Z,21.30
2023-01-21T07:53:37.049Z,20.00
2023-01-21T07:56:11.200Z,22.30
2023-01-21T07:58:43.665Z,25.20
2023-01-21T08:01:15.934Z,21.50
2023-01-21T08:03:48.291Z,20.80
2023-01-21T08:06:21.024Z,20.90
2023-01-21T08:08:53.604Z,21.30
2023-01-21T08:11:26.040Z,22.70
2023-01-21T08:13:58.366Z,25.00
2023-01-21T08:16:30.662Z,22.70
2023-01-21T08:19:02.967Z,23.90
2023-01-21T08:21:35.158Z,22.40
2023-01-21T08:24:08.612Z,26.80
2023-01-21T08:26:41.085Z,22.50
2023-01-21T08:29:13.412Z,26.40
2023-01-21T08:31:45.874Z,22.00
2023-01-21T08:34:19.772Z,22.80
2023-01-21T08:36:52.193Z,26.80
2023-01-21T08:39:24.575Z,30.90
2023-01-21T08:41:56.771Z,25.80
2023-01-21T08:44:29.115Z,23.30
2023-01-21T08:47:01.402Z,26.50
2023-01-21T08:49:33.961Z,21.20
2023-01-21T08:52:07.029Z,24.40
2023-01-21T08:54:39.504Z,24.00
2023-01-21T08:57:12.074Z,22.80
2023-01-21T08:59:44.369Z,25.10
2023-01-21T09:02:16.596Z,19.80
2023-01-21T09:04:50.718Z,21.30
2023-01-21T09:07:22.950Z,22.40
2023-01-21T09:09:55.174Z,19.50
2023-01-21T09:12:27.441Z,21.40
2023-01-21T09:15:00.005Z,20.80
2023-01-21T09:17:32.542Z,17.70
2023-01-21T09:20:05.312Z,21.10
2023-01-21T09:22:37.710Z,17.20
2023-01-21T09:25:11.112Z,17.20
2023-01-21T09:27:43.394Z,18.30
2023-01-21T09:30:17.020Z,21.10
2023-01-21T09:32:49.252Z,22.60
2023-01-21T09:35:21.549Z,22.80
2023-01-21T09:37:53.770Z,17.40
2023-01-21T09:40:26.177Z,18.10
2023-01-21T09:42:59.218Z,18.90
2023-01-21T09:45:31.779Z,19.90
2023-01-21T09:48:05.827Z,17.20
2023-01-21T09:50:42.409Z,23.50
2023-01-21T09:53:34.143Z,24.70
2023-01-21T09:56:18.377Z,22.40
2023-01-21T09:58:59.000Z,19.40
2023-01-21T10:01:35.226Z,16.00
2023-01-21T10:04:30.441Z,19.40
2023-01-21T10:07:14.589Z,16.60
2023-01-21T10:10:05.149Z,18.90
2023-01-21T10:12:54.077Z,18.00
2023-01-21T10:15:43.635Z,16.90
2023-01-21T10:18:20.339Z,15.80
2023-01-21T10:20:57.357Z,20.40
2023-01-21T10:23:33.478Z,17.60
2023-01-21T10:26:10.597Z,15.00
2023-01-21T10:28:46.778Z,17.20
2023-01-21T10:31:25.133Z,15.60
2023-01-21T10:33:58.054Z,18.50
2023-01-21T10:37:01.136Z,14.40
2023-01-21T10:39:44.740Z,17.20
2023-01-21T10:42:43.870Z,16.60
2023-01-21T10:45:32.684Z,17.80
2023-01-21T10:48:12.862Z,16.30
2023-01-21T10:50:51.581Z,15.20
2023-01-21T10:53:31.907Z,15.10
2023-01-21T10:56:15.372Z,16.30
2023-01-21T10:58:50.517Z,18.20
2023-01-21T11:01:27.015Z,18.30
2023-01-21T11:04:02.141Z,16.20
2023-01-21T11:06:36.612Z,17.90
2023-01-21T11:09:13.567Z,15.80
2023-01-21T11:11:46.690Z,14.60
2023-01-21T11:14:21.169Z,15.90
2023-01-21T11:16:55.056Z,16.10
2023-01-21T11:19:30.605Z,14.40
2023-01-21T11:22:05.645Z,15.20
2023-01-21T11:24:47.636Z,14.30
2023-01-21T11:27:32.850Z,13.80
2023-01-21T11:30:31.513Z,16.70
2023-01-21T11:36:13.032Z,11.90
2023-01-21T11:38:47.438Z,11.70
2023-01-21T11:41:23.844Z,15.10
2023-01-21T11:44:08.602Z,12.30
2023-01-21T11:46:42.076Z,9.90
2023-01-21T11:49:29.478Z,14.20
2023-01-21T11:52:18.113Z,11.70
2023-01-21T11:54:51.484Z,13.40
2023-01-21T11:57:28.506Z,13.30
2023-01-21T12:00:08.847Z,11.40
2023-01-21T12:02:45.156Z,12.60
2023-01-21T12:05:22.499Z,13.60
2023-01-21T12:07:56.079Z,11.20
2023-01-21T12:10:34.735Z,12.30
2023-01-21T12:13:20.189Z,13.90
2023-01-21T12:16:20.152Z,11.30
2023-01-21T12:19:16.599Z,16.10
2023-01-21T12:22:02.852Z,10.00
2023-01-21T12:24:53.162Z,8.90
2023-01-21T12:27:34.058Z,13.00
2023-01-21T12:30:20.289Z,11.40
2023-01-21T12:35:31.593Z,9.80
2023-01-21T12:38:09.110Z,12.70
2023-01-21T12:40:47.255Z,9.50
2023-01-21T12:43:24.162Z,12.10
2023-01-21T12:46:01.580Z,9.10
2023-01-21T12:48:41.638Z,8.40
2023-01-21T12:51:20.137Z,8.30
2023-01-21T12:53:58.034Z,7.90
2023-01-21T12:56:39.245Z,9.20
2023-01-21T12:59:18.495Z,8.10
2023-01-21T13:01:58.830Z,9.90
2023-01-21T13:04:43.507Z,9.30
2023-01-21T13:07:26.997Z,11.10
2023-01-21T13:10:08.218Z,9.00
2023-01-21T13:12:43.587Z,9.50
2023-01-21T13:15:21.317Z,7.90
2023-01-21T13:17:58.606Z,10.20
2023-01-21T13:20:32.889Z,9.80
2023-01-21T13:23:15.380Z,9.60
2023-01-21T13:25:55.753Z,10.70
2023-01-21T13:28:36.168Z,9.30
2023-01-21T13:31:13.641Z,7.00
2023-01-21T13:33:56.408Z,8.60
2023-01-21T13:36:46.913Z,7.90
2023-01-21T13:39:29.510Z,8.30
2023-01-21T13:42:16.955Z,10.60
2023-01-21T13:45:05.492Z,10.40
2023-01-21T13:47:51.970Z,11.20
2023-01-21T13:50:33.356Z,8.40
2023-01-21T13:53:23.354Z,9.80
2023-01-21T13:56:08.591Z,10.60
2023-01-21T13:58:47.878Z,10.40
2023-01-21T14:01:25.634Z,13.10
2023-01-21T14:04:04.575Z,8.50
2023-01-21T14:06:42.377Z,8.70
2023-01-21T14:09:21.291Z,10.20
2023-01-21T14:12:00.957Z,8.80
2023-01-21T14:15:11.608Z,8.60
2023-01-21T14:18:07.363Z,9.30
2023-01-21T14:20:58.741Z,16.10
2023-01-21T14:23:52.027Z,9.60
2023-01-21T14:26:41.959Z,10.90
2023-01-21T14:29:22.608Z,10.30
2023-01-21T14:31:59.438Z,10.20
2023-01-21T14:34:40.318Z,8.60
2023-01-21T14:37:16.637Z,11.10
2023-01-21T14:40:00.109Z,11.50
2023-01-21T14:42:50.421Z,11.00
2023-01-21T14:45:25.961Z,11.10
2023-01-21T14:47:59.028Z,11.30
2023-01-21T14:50:55.104Z,9.60
2023-01-21T14:53:29.398Z,8.90
2023-01-21T14:56:23.607Z,12.10
2023-01-21T14:58:59.334Z,13.20
2023-01-21T15:01:39.889Z,13.80
2023-01-21T15:04:29.010Z,10.80
2023-01-21T15:07:04.041Z,10.30
2023-01-21T15:09:43.027Z,12.20
2023-01-21T15:12:21.445Z,11.80
2023-01-21T15:14:59.868Z,14.70
2023-01-21T15:18:04.137Z,10.80
2023-01-21T15:20:58.719Z,11.90
2023-01-21T15:23:41.888Z,13.70
2023-01-21T15:26:33.581Z,15.80
2023-01-21T15:29:32.831Z,21.50
2023-01-21T15:32:27.637Z,14.40
2023-01-21T15:35:06.336Z,12.40
2023-01-21T15:37:41.942Z,11.00
2023-01-21T15:40:21.653Z,11.00
2023-01-21T15:43:02.006Z,13.50
2023-01-21T15:45:45.728Z,12.00
2023-01-21T15:48:54.003Z,11.10
2023-01-21T15:51:40.532Z,16.90
2023-01-21T15:54:26.866Z,13.70
2023-01-21T16:00:03.712Z,11.80
2023-01-21T16:02:46.438Z,13.40
2023-01-21T16:05:29.173Z,17.50
2023-01-21T16:08:15.638Z,15.00
2023-01-21T16:11:03.283Z,10.60
2023-01-21T16:13:48.579Z,28.10
2023-01-21T16:16:35.043Z,14.70
2023-01-21T16:19:09.547Z,17.60
2023-01-21T16:21:46.087Z,12.70
2023-01-21T16:24:24.899Z,13.80
2023-01-21T16:26:58.632Z,18.60
2023-01-21T16:29:30.869Z,13.90
2023-01-21T16:32:03.353Z,11.70
2023-01-21T16:34:44.726Z,16.20
2023-01-21T16:37:19.857Z,14.70
2023-01-21T16:39:57.260Z,14.50
2023-01-21T16:42:36.349Z,17.30
2023-01-21T16:45:18.057Z,17.10
2023-01-21T16:47:58.937Z,16.10
2023-01-21T16:50:33.060Z,17.30
2023-01-21T16:53:09.563Z,16.80
2023-01-21T16:55:47.365Z,22.10
2023-01-21T16:58:29.949Z,18.80
2023-01-21T17:01:11.774Z,20.90
2023-01-21T17:03:45.410Z,21.20
2023-01-21T17:06:23.775Z,18.00
2023-01-21T17:09:01.305Z,20.10
2023-01-21T17:11:34.491Z,19.60
2023-01-21T17:14:11.202Z,21.00
2023-01-21T17:16:44.963Z,19.50
2023-01-21T17:19:25.028Z,22.20
2023-01-21T17:22:01.637Z,23.90
2023-01-21T17:24:39.343Z,21.90
2023-01-21T17:27:16.379Z,22.00
2023-01-21T17:29:49.276Z,19.40
2023-01-21T17:32:32.718Z,18.70
2023-01-21T17:35:14.184Z,20.80
2023-01-21T17:37:53.428Z,18.70
2023-01-21T17:40:34.797Z,25.20
2023-01-21T17:43:21.715Z,19.30
2023-01-21T17:45:55.479Z,19.50
2023-01-21T17:48:31.306Z,18.50
2023-01-21T17:53:46.486Z,20.90
2023-01-21T17:56:37.477Z,21.10
2023-01-21T17:59:27.673Z,26.00
2023-01-21T18:02:00.289Z,31.00
2023-01-21T18:04:33.025Z,20.50
2023-01-21T18:07:08.278Z,25.30
2023-01-21T18:09:40.590Z,27.50
2023-01-21T18:12:14.025Z,15.10
2023-01-21T18:14:46.745Z,22.30
2023-01-21T18:17:21.293Z,18.80
2023-01-21T18:19:53.840Z,16.90
2023-01-21T18:22:29.647Z,16.00
2023-01-21T18:25:03.285Z,19.00
2023-01-21T18:27:35.797Z,18.40
2023-01-21T18:30:15.897Z,21.10
2023-01-21T18:32:49.932Z,19.50
2023-01-21T18:35:27.135Z,16.20
2023-01-21T18:37:59.572Z,20.00
2023-01-21T18:40:31.848Z,25.00
2023-01-21T18:43:04.105Z,16.80
2023-01-21T18:45:36.427Z,22.80
2023-01-21T18:48:15.240Z,34.80
2023-01-21T18:50:47.576Z,12.30
2023-01-21T18:53:19.929Z,17.80
2023-01-21T18:55:54.989Z,19.40
2023-01-21T18:58:27.342Z,16.00
2023-01-21T19:01:00.528Z,15.80
2023-01-21T19:03:35.396Z,16.90
2023-01-21T19:06:14.396Z,11.00
2023-01-21T19:08:48.999Z,13.70
2023-01-21T19:11:21.283Z,14.90
2023-01-21T19:13:53.608Z,18.80
2023-01-21T19:16:26.273Z,23.90
2023-01-21T19:18:58.879Z,18.10
2023-01-21T19:21:31.123Z,10.00
2023-01-21T19:24:03.429Z,13.40
2023-01-21T19:26:36.516Z,11.60
2023-01-21T19:29:14.824Z,14.00
2023-01-21T19:31:47.599Z,11.80
2023-01-21T19:34:20.031Z,13.20
2023-01-21T19:36:52.550Z,17.80
2023-01-21T19:39:26.542Z,8.80
2023-01-21T19:42:08.052Z,12.40
2023-01-21T19:44:40.967Z,8.30
2023-01-21T19:47:21.473Z,13.70
2023-01-21T19:49:53.699Z,9.20
2023-01-21T19:52:26.068Z,11.00
2023-01-21T19:54:58.422Z,14.30
2023-01-21T19:57:32.753Z,9.70
2023-01-21T20:00:06.553Z,16.30
2023-01-21T20:02:38.829Z,14.70
2023-01-21T20:05:11.743Z,12.70
2023-01-21T20:07:45.508Z,6.90
2023-01-21T20:10:20.554Z,10.50
2023-01-21T20:12:54.184Z,8.50
2023-01-21T20:15:32.315Z,11.20
2023-01-21T20:18:06.478Z,9.80
2023-01-21T20:20:38.768Z,7.80
2023-01-21T20:23:15.127Z,18.40
2023-01-21T20:25:50.004Z,13.10
2023-01-21T20:28:26.152Z,15.10
2023-01-21T20:30:59.272Z,12.60
2023-01-21T20:33:31.515Z,15.90
2023-01-21T20:36:05.831Z,14.70
2023-01-21T20:38:39.529Z,7.90
2023-01-21T20:41:13.016Z,8.50
2023-01-21T20:43:45.384Z,13.50
2023-01-21T20:46:21.854Z,16.40
2023-01-21T20:48:54.445Z,10.90
2023-01-21T20:51:26.980Z,15.30
2023-01-21T20:53:59.375Z,8.70
2023-01-21T20:56:33.307Z,11.70
2023-01-21T20:59:05.939Z,13.10
2023-01-21T21:01:39.525Z,11.00
2023-01-21T21:04:11.839Z,9.30
2023-01-21T21:06:46.486Z,7.00
2023-01-21T21:09:20.671Z,8.50
2023-01-21T21:11:57.704Z,10.20
2023-01-21T21:14:30.274Z,7.20
2023-01-21T21:17:02.721Z,15.80
2023-01-21T21:19:35.683Z,8.40
2023-01-21T21:22:10.956Z,9.30
2023-01-21T21:24:43.525Z,12.10
2023-01-21T21:27:16.992Z,11.90
2023-01-21T21:29:49.463Z,7.50
2023-01-21T21:32:21.705Z,17.70
2023-01-21T21:34:57.227Z,10.50
2023-01-21T21:37:29.489Z,9.40
2023-01-21T21:40:01.928Z,13.70
2023-01-21T21:42:51.656Z,11.00
2023-01-21T21:45:24.543Z,11.80
2023-01-21T21:48:14.159Z,8.60
2023-01-21T21:50:46.539Z,13.50
2023-01-21T21:53:18.843Z,6.80
2023-01-21T21:55:51.171Z,9.60
2023-01-21T21:58:23.529Z,14.00
2023-01-21T22:00:55.931Z,15.40
2023-01-21T22:03:28.325Z,9.60
2023-01-21T22:06:04.014Z,10.80
2023-01-21T22:08:37.511Z,9.20
2023-01-21T22:11:11.765Z,4.50
2023-01-21T22:13:45.255Z,7.40
2023-01-21T22:16:20.109Z,10.10
2023-01-21T22:18:53.071Z,11.20
2023-01-21T22:21:27.504Z,6.60
2023-01-21T22:24:00.148Z,6.60
2023-01-21T22:26:35.569Z,9.80
2023-01-21T22:29:08.687Z,6.90
2023-01-21T22:31:41.040Z,12.50
2023-01-21T22:34:14.510Z,9.70
2023-01-21T22:36:48.330Z,8.60
2023-01-21T22:39:20.668Z,4.60
2023-01-21T22:41:55.316Z,6.60
2023-01-21T22:44:27.595Z,10.70
2023-01-21T22:47:00.274Z,6.80
2023-01-21T22:49:32.737Z,11.70
2023-01-21T22:52:05.030Z,8.20
2023-01-21T22:54:37.292Z,10.40
2023-01-21T22:57:09.613Z,10.90
2023-01-21T22:59:41.813Z,10.20
2023-01-21T23:02:14.136Z,9.40
2023-01-21T23:04:47.020Z,7.90
2023-01-21T23:07:19.381Z,8.10
2023-01-21T23:09:52.173Z,12.20
2023-01-21T23:12:24.596Z,10.60
2023-01-21T23:14:57.019Z,16.90
2023-01-21T23:17:29.303Z,6.80
2023-01-21T23:20:01.675Z,11.40
2023-01-21T23:22:34.057Z,6.90
2023-01-21T23:25:07.082Z,9.70
2023-01-21T23:27:39.465Z,9.30
2023-01-21T23:30:14.448Z,6.50
2023-01-21T23:32:46.912Z,6.80
2023-01-21T23:35:19.595Z,12.80
2023-01-21T23:37:51.874Z,8.40
2023-01-21T23:40:24.358Z,8.10
2023-01-21T23:42:56.604Z,7.30
2023-01-21T23:45:28.984Z,7.20
2023-01-21T23:48:01.190Z,8.40
2023-01-21T23:50:33.756Z,12.40
2023-01-21T23:53:06.026Z,7.80
2023-01-21T23:55:38.223Z,8.70
2023-01-21T23:58:10.994Z,11.50
